Time;durP1;ratioP1;P1;durP2;ratioP2;P2;SDS_P1;SDS_P2;PMS_P1;PMS_P2;Temp;Humidity;BMP_temperature;BMP_pressure;BME280_temperature;BME280_humidity;BME280_pressure;Samples;Min_cycle;Max_cycle;Signal;HPM_P1;HPM_P2
2022/04/09 00:01:18;;;;;;;1.80;1.70;;;17.80;40.00;;;;;;5043206;28;20418;-59
2022/04/09 00:03:44;;;;;;;2.07;1.73;;;17.80;40.80;;;;;;5040827;28;20618;-60
2022/04/09 00:06:10;;;;;;;2.07;1.90;;;17.80;40.00;;;;;;5041804;28;20713;-60
2022/04/09 00:08:35;;;;;;;2.40;1.70;;;17.80;40.00;;;;;;5038220;28;20223;-59
2022/04/09 00:11:01;;;;;;;1.63;1.50;;;17.80;40.00;;;;;;5042850;28;20254;-59
2022/04/09 00:13:26;;;;;;;1.73;1.63;;;17.80;40.00;;;;;;5044228;28;20214;-59
2022/04/09 00:15:52;;;;;;;2.07;1.53;;;17.80;40.00;;;;;;5040377;28;20225;-59
2022/04/09 00:18:17;;;;;;;1.60;1.43;;;17.80;40.00;;;;;;5043445;28;20239;-60
2022/04/09 00:20:43;;;;;;;1.60;1.50;;;17.80;40.00;;;;;;5041604;28;20581;-59
2022/04/09 00:23:10;;;;;;;1.80;1.63;;;17.80;40.00;;;;;;5038310;28;20688;-59
2022/04/09 00:25:36;;;;;;;1.60;1.50;;;17.80;40.00;;;;;;5039210;28;20663;-59
2022/04/09 00:28:02;;;;;;;2.13;1.80;;;17.80;40.00;;;;;;5041147;28;20428;-60
2022/04/09 00:30:28;;;;;;;1.70;1.60;;;17.80;40.00;;;;;;5037012;28;20539;-60
2022/04/09 00:32:54;;;;;;;1.70;1.43;;;17.80;40.00;;;;;;5040233;28;20513;-60
2022/04/09 00:35:19;;;;;;;1.70;1.60;;;17.80;40.00;;;;;;5045390;28;20210;-60
2022/04/09 00:37:46;;;;;;;3.77;1.30;;;17.80;40.00;;;;;;5040969;28;20234;-60
2022/04/09 00:40:14;;;;;;;2.33;1.70;;;17.80;40.00;;;;;;5039301;28;20227;-59
2022/04/09 00:42:42;;;;;;;4.07;1.80;;;17.80;40.00;;;;;;5042610;28;20847;-59
2022/04/09 00:45:09;;;;;;;1.60;1.50;;;17.80;40.00;;;;;;5036835;28;20802;-59
2022/04/09 00:47:36;;;;;;;1.60;1.50;;;17.80;40.00;;;;;;5037088;28;20932;-60
2022/04/09 00:50:03;;;;;;;1.70;1.60;;;17.80;40.00;;;;;;5039602;28;20449;-59
2022/04/09 00:52:38;;;;;;;1.60;1.50;;;17.80;40.00;;;;;;5040170;28;20543;-59
2022/04/09 00:55:04;;;;;;;2.60;1.63;;;17.80;40.00;;;;;;5041753;28;20801;-59
2022/04/09 00:57:34;;;;;;;2.13;1.30;;;17.80;40.00;;;;;;5043119;28;20449;-59
2022/04/09 01:00:10;;;;;;;1.57;1.37;;;17.80;40.00;;;;;;5041344;28;20535;-60
2022/04/09 01:02:41;;;;;;;1.73;1.53;;;17.80;40.00;;;;;;5038285;28;20455;-60
2022/04/09 01:05:07;;;;;;;1.60;1.50;;;17.80;40.00;;;;;;5042415;28;20444;-59
2022/04/09 01:07:34;;;;;;;1.40;1.30;;;17.80;40.00;;;;;;5036149;28;20795;-59
2022/04/09 01:10:10;;;;;;;1.37;1.27;;;17.80;40.00;;;;;;5046336;28;20448;-59
2022/04/09 01:12:37;;;;;;;1.70;1.60;;;17.80;40.00;;;;;;5042728;28;20486;-59
2022/04/09 01:15:06;;;;;;;1.40;1.30;;;17.80;40.00;;;;;;5040602;28;20456;-60
2022/04/09 01:17:32;;;;;;;1.70;1.60;;;17.80;40.10;;;;;;5036479;28;20418;-60
2022/04/09 01:19:57;;;;;;;1.27;1.17;;;17.80;40.10;;;;;;5043565;28;20465;-60
2022/04/09 01:22:23;;;;;;;2.23;1.30;;;17.80;40.10;;;;;;5038277;28;20598;-59
2022/04/09 01:24:48;;;;;;;1.60;1.37;;;17.80;40.10;;;;;;5038920;28;20246;-60
2022/04/09 01:27:14;;;;;;;1.80;1.50;;;17.80;40.00;;;;;;5036374;28;20225;-59
2022/04/09 01:29:40;;;;;;;1.90;1.50;;;17.80;40.00;;;;;;5040302;28;20308;-60
2022/04/09 01:32:06;;;;;;;1.90;1.80;;;17.80;40.00;;;;;;5040654;28;20242;-59
2022/04/09 01:34:32;;;;;;;1.67;1.57;;;17.80;40.00;;;;;;5040805;28;20469;-59
2022/04/09 01:36:58;;;;;;;1.23;1.13;;;17.80;40.00;;;;;;5038420;28;20226;-60
2022/04/09 01:39:23;;;;;;;1.47;1.30;;;17.80;40.10;;;;;;5036164;28;20793;-60
2022/04/09 01:41:49;;;;;;;1.50;1.40;;;17.80;40.00;;;;;;5027842;28;20313;-60
2022/04/09 01:44:15;;;;;;;1.53;1.43;;;17.70;39.90;;;;;;5039237;28;20218;-59
2022/04/09 01:46:44;;;;;;;3.73;1.33;;;17.70;39.90;;;;;;5040006;28;20654;-60
2022/04/09 01:49:11;;;;;;;1.47;1.37;;;17.80;40.00;;;;;;5041136;28;20222;-59
2022/04/09 01:51:37;;;;;;;1.43;1.33;;;17.70;39.90;;;;;;5039865;28;20460;-59
2022/04/09 01:54:02;;;;;;;1.40;1.27;;;17.70;39.90;;;;;;5037842;28;20432;-60
2022/04/09 01:56:28;;;;;;;1.33;1.23;;;17.80;40.00;;;;;;5044052;28;20237;-60
2022/04/09 01:58:53;;;;;;;1.40;1.30;;;17.70;39.90;;;;;;5039790;28;20605;-59
2022/04/09 02:01:19;;;;;;;1.40;1.30;;;17.70;39.90;;;;;;5036575;28;20649;-59
2022/04/09 02:03:44;;;;;;;1.20;1.10;;;17.80;40.00;;;;;;5038695;28;20222;-59
2022/04/09 02:06:11;;;;;;;1.23;1.13;;;17.70;39.90;;;;;;5041764;28;20322;-59
2022/04/09 02:08:37;;;;;;;1.27;1.17;;;17.70;39.90;;;;;;5037735;28;20222;-59
2022/04/09 02:11:02;;;;;;;1.63;1.50;;;17.70;40.00;;;;;;5042467;28;20463;-59
2022/04/09 02:13:28;;;;;;;1.50;1.40;;;17.70;39.90;;;;;;5044251;28;20222;-60
2022/04/09 02:15:53;;;;;;;1.97;1.40;;;17.80;40.00;;;;;;5043112;28;20222;-59
2022/04/09 02:18:19;;;;;;;1.50;1.40;;;17.70;39.90;;;;;;5043309;28;20751;-60
2022/04/09 02:20:45;;;;;;;2.13;1.43;;;17.70;40.00;;;;;;5049107;28;20226;-59
2022/04/09 02:23:10;;;;;;;1.50;1.40;;;17.70;39.90;;;;;;5044439;28;20231;-59
2022/04/09 02:25:36;;;;;;;1.83;1.30;;;17.70;39.90;;;;;;5047457;28;20561;-59
2022/04/09 02:28:01;;;;;;;1.57;1.10;;;17.70;39.90;;;;;;5047544;28;20222;-59
2022/04/09 02:30:27;;;;;;;1.30;1.20;;;17.70;39.90;;;;;;5044647;28;20230;-59
2022/04/09 02:32:53;;;;;;;1.33;1.10;;;17.70;39.90;;;;;;5046244;28;20214;-60
2022/04/09 02:35:20;;;;;;;1.53;1.30;;;17.70;39.90;;;;;;5047258;28;21077;-59
2022/04/09 02:37:46;;;;;;;1.53;1.43;;;17.70;40.00;;;;;;5042460;28;20435;-60
2022/04/09 02:40:12;;;;;;;1.53;1.43;;;17.70;39.90;;;;;;5048560;28;20455;-59
2022/04/09 02:42:39;;;;;;;1.23;1.13;;;17.70;39.90;;;;;;5045516;28;20227;-60
2022/04/09 02:45:06;;;;;;;1.30;1.20;;;17.70;39.90;;;;;;5045495;28;20459;-59
2022/04/09 02:47:33;;;;;;;1.40;1.10;;;17.70;39.90;;;;;;5045989;28;20443;-59
2022/04/09 02:50:00;;;;;;;1.53;1.20;;;17.70;40.00;;;;;;5047618;28;20463;-59
2022/04/09 02:52:27;;;;;;;1.93;1.40;;;17.70;40.00;;;;;;5044947;28;20454;-59
2022/04/09 02:54:53;;;;;;;1.87;1.77;;;17.70;39.90;;;;;;5048868;28;20480;-60
2022/04/09 02:57:19;;;;;;;1.97;1.67;;;17.70;39.90;;;;;;5044979;28;20414;-60
2022/04/09 02:59:45;;;;;;;2.07;1.50;;;17.70;40.00;;;;;;5039964;28;20671;-59
2022/04/09 03:02:10;;;;;;;1.50;1.40;;;17.70;39.90;;;;;;5047658;28;20226;-59
2022/04/09 03:04:36;;;;;;;1.50;1.40;;;17.70;40.00;;;;;;5046021;28;20433;-59
2022/04/09 03:07:02;;;;;;;1.30;1.10;;;17.70;39.90;;;;;;5048808;28;20234;-59
2022/04/09 03:09:27;;;;;;;1.30;1.10;;;17.70;39.90;;;;;;5044542;28;20247;-59
2022/04/09 03:11:53;;;;;;;1.30;1.10;;;17.70;39.90;;;;;;5049649;28;20222;-60
2022/04/09 03:14:20;;;;;;;1.10;1.00;;;17.70;39.90;;;;;;5043819;28;20687;-59
2022/04/09 03:16:45;;;;;;;1.60;1.43;;;17.70;39.90;;;;;;5046810;28;20222;-59
2022/04/09 03:19:11;;;;;;;1.43;1.33;;;17.70;39.90;;;;;;5048982;28;20462;-63
2022/04/09 03:21:36;;;;;;;1.60;1.50;;;17.70;39.90;;;;;;5040465;28;20230;-60
2022/04/09 03:24:02;;;;;;;1.50;1.17;;;17.70;39.90;;;;;;5046520;28;20216;-60
2022/04/09 03:26:27;;;;;;;1.63;1.03;;;17.70;39.90;;;;;;5049821;28;20230;-60
2022/04/09 03:28:53;;;;;;;1.77;1.10;;;17.70;39.90;;;;;;5044304;28;20683;-61
2022/04/09 03:31:18;;;;;;;1.20;1.10;;;17.70;39.90;;;;;;5043248;28;20737;-60
2022/04/09 03:33:45;;;;;;;1.20;1.10;;;17.70;39.80;;;;;;5043665;28;20222;-59
2022/04/09 03:36:11;;;;;;;1.23;1.13;;;17.70;39.80;;;;;;5040594;28;20258;-60
2022/04/09 03:38:37;;;;;;;1.80;1.30;;;17.70;39.90;;;;;;5041539;28;20459;-59
2022/04/09 03:41:02;;;;;;;2.23;1.77;;;17.70;39.80;;;;;;5042482;28;20673;-61
2022/04/09 03:43:29;;;;;;;1.47;1.20;;;17.80;39.90;;;;;;5047101;28;20284;-61
2022/04/09 03:45:54;;;;;;;1.20;1.10;;;17.70;39.80;;;;;;5040922;28;20215;-60
2022/04/09 03:48:20;;;;;;;1.27;1.17;;;17.70;39.90;;;;;;5045366;28;20831;-60
2022/04/09 03:50:46;;;;;;;1.67;1.20;;;17.70;39.90;;;;;;5042572;28;20241;-59
2022/04/09 03:53:11;;;;;;;1.50;1.20;;;17.70;39.80;;;;;;5036443;28;20447;-60
2022/04/09 03:55:37;;;;;;;1.47;1.33;;;17.70;39.80;;;;;;5045773;28;20238;-59
2022/04/09 03:58:02;;;;;;;1.43;1.33;;;17.70;39.80;;;;;;5037735;28;20219;-59
2022/04/09 04:00:28;;;;;;;1.30;1.20;;;17.70;39.80;;;;;;5037740;28;20226;-59
2022/04/09 04:02:56;;;;;;;1.40;1.30;;;17.70;39.90;;;;;;5044668;28;20234;-59
2022/04/09 04:05:22;;;;;;;1.73;1.00;;;17.70;39.90;;;;;;5043031;28;20261;-60
2022/04/09 04:07:48;;;;;;;1.20;1.10;;;17.70;39.90;;;;;;5039062;28;20464;-60
2022/04/09 04:10:18;;;;;;;1.37;1.27;;;17.70;39.80;;;;;;5041554;28;20575;-60
2022/04/09 04:12:44;;;;;;;1.20;1.10;;;17.70;39.80;;;;;;4999430;28;20227;-60
2022/04/09 04:15:10;;;;;;;1.13;1.03;;;17.70;40.60;;;;;;5037969;28;20459;-60
2022/04/09 04:17:43;;;;;;;1.17;1.07;;;17.70;39.90;;;;;;5043821;28;20826;-59
2022/04/09 04:20:11;;;;;;;1.27;1.17;;;17.70;39.80;;;;;;5039741;28;20226;-59
2022/04/09 04:22:37;;;;;;;1.20;1.10;;;17.70;39.90;;;;;;5043449;28;20430;-59
2022/04/09 04:25:04;;;;;;;1.20;1.10;;;17.70;39.90;;;;;;5041366;28;20421;-59
2022/04/09 04:27:30;;;;;;;1.27;1.10;;;17.70;39.90;;;;;;5045523;28;20441;-59
2022/04/09 04:29:59;;;;;;;1.30;1.20;;;17.70;39.90;;;;;;5040050;28;20494;-59
2022/04/09 04:32:26;;;;;;;1.13;1.03;;;17.70;39.80;;;;;;5039806;28;20310;-59
2022/04/09 04:34:51;;;;;;;1.03;0.93;;;17.70;39.90;;;;;;5038431;28;20787;-60
2022/04/09 04:37:17;;;;;;;2.97;1.10;;;17.70;39.90;;;;;;5033842;28;20938;-59
2022/04/09 04:39:43;;;;;;;1.30;1.20;;;17.70;39.90;;;;;;5043583;28;20226;-59
2022/04/09 04:42:08;;;;;;;1.10;1.00;;;17.70;39.90;;;;;;5043018;28;20238;-61
2022/04/09 04:44:34;;;;;;;1.50;1.30;;;17.70;39.80;;;;;;5037801;28;20440;-63
2022/04/09 04:47:00;;;;;;;2.00;1.00;;;17.70;39.90;;;;;;5040588;28;20314;-60
2022/04/09 04:49:25;;;;;;;3.67;1.23;;;17.70;39.80;;;;;;5040572;28;20222;-60
2022/04/09 04:51:51;;;;;;;1.33;1.17;;;17.70;39.80;;;;;;5037937;28;20238;-60
2022/04/09 04:54:16;;;;;;;1.13;1.03;;;17.70;39.80;;;;;;5040346;28;20231;-59
2022/04/09 04:56:42;;;;;;;1.20;1.10;;;17.70;39.80;;;;;;5037872;28;20426;-60
2022/04/09 04:59:08;;;;;;;1.37;1.10;;;17.70;39.80;;;;;;5042191;28;20257;-61
2022/04/09 05:01:37;;;;;;;1.23;1.13;;;17.70;39.80;;;;;;5043765;28;20231;-60
2022/04/09 05:04:03;;;;;;;1.50;1.10;;;17.70;39.80;;;;;;5042462;28;20428;-60
2022/04/09 05:06:29;;;;;;;1.10;1.00;;;17.70;39.80;;;;;;5039674;28;20966;-59
2022/04/09 05:08:54;;;;;;;1.10;1.00;;;17.70;39.80;;;;;;5040218;28;20460;-60
2022/04/09 05:11:21;;;;;;;1.47;1.00;;;17.70;39.80;;;;;;5042957;28;20260;-59
2022/04/09 05:13:47;;;;;;;1.10;1.00;;;17.70;40.60;;;;;;5036491;28;20215;-59
2022/04/09 05:16:12;;;;;;;1.27;1.00;;;17.70;39.70;;;;;;5042320;28;20439;-59
2022/04/09 05:18:38;;;;;;;1.13;1.03;;;17.70;39.80;;;;;;5044815;28;20257;-59
2022/04/09 05:21:04;;;;;;;1.10;1.00;;;17.70;39.80;;;;;;5041049;28;20223;-59
2022/04/09 05:23:30;;;;;;;1.10;1.00;;;17.70;39.70;;;;;;5042310;28;20296;-59
2022/04/09 05:25:55;;;;;;;1.70;1.10;;;17.80;39.80;;;;;;5041465;28;20227;-59
2022/04/09 05:28:21;;;;;;;1.20;1.10;;;17.70;39.70;;;;;;5038967;28;20277;-59
2022/04/09 05:30:47;;;;;;;1.10;0.97;;;17.80;39.80;;;;;;5039844;28;20230;-60
2022/04/09 05:33:13;;;;;;;1.40;1.30;;;17.80;39.80;;;;;;5041029;28;20231;-59
2022/04/09 05:35:38;;;;;;;1.33;1.23;;;17.80;39.70;;;;;;5035267;28;20227;-60
2022/04/09 05:38:04;;;;;;;1.13;1.00;;;17.80;39.70;;;;;;5041993;28;20317;-58
2022/04/09 05:40:30;;;;;;;1.13;1.03;;;17.80;39.70;;;;;;5041486;28;20245;-58
2022/04/09 05:42:55;;;;;;;1.63;0.97;;;17.80;39.70;;;;;;5038732;28;20628;-60
2022/04/09 05:45:21;;;;;;;1.53;1.07;;;17.80;39.60;;;;;;5039413;28;20226;-58
2022/04/09 05:47:47;;;;;;;1.43;1.17;;;17.80;39.60;;;;;;5041929;28;20214;-57
2022/04/09 05:50:14;;;;;;;1.20;0.97;;;17.90;39.50;;;;;;5043577;28;20261;-60
2022/04/09 05:52:41;;;;;;;1.60;1.50;;;17.90;39.40;;;;;;5036678;28;20440;-60
2022/04/09 05:55:07;;;;;;;2.90;0.97;;;17.90;39.40;;;;;;5039025;28;20439;-59
2022/04/09 05:57:34;;;;;;;1.20;1.03;;;17.90;39.30;;;;;;5046548;28;20542;-60
2022/04/09 06:00:00;;;;;;;2.20;1.20;;;18.00;39.30;;;;;;5038152;28;20581;-59
2022/04/09 06:02:25;;;;;;;2.00;1.40;;;18.00;39.20;;;;;;5041358;28;20991;-60
2022/04/09 06:04:51;;;;;;;1.30;1.10;;;18.00;39.30;;;;;;5039320;28;20530;-58
2022/04/09 06:07:17;;;;;;;1.80;1.40;;;18.00;39.20;;;;;;5039833;28;20234;-58
2022/04/09 06:09:44;;;;;;;1.80;1.23;;;18.00;39.20;;;;;;5044043;28;20229;-61
2022/04/09 06:12:12;;;;;;;1.57;1.20;;;18.00;40.00;;;;;;5020161;28;20446;-58
2022/04/09 06:14:38;;;;;;;1.73;1.10;;;18.00;39.20;;;;;;5039146;28;20439;-60
2022/04/09 06:17:04;;;;;;;1.20;1.10;;;18.00;39.20;;;;;;5042825;28;20448;-59
2022/04/09 06:19:31;;;;;;;6.63;1.20;;;18.00;39.20;;;;;;5043123;28;20442;-58
2022/04/09 06:21:57;;;;;;;2.57;1.00;;;18.00;39.20;;;;;;5037105;28;20219;-60
2022/04/09 06:24:23;;;;;;;1.30;1.20;;;18.00;39.20;;;;;;5035248;28;20923;-59
2022/04/09 06:26:48;;;;;;;1.43;1.30;;;18.00;39.20;;;;;;5038371;28;20485;-59
2022/04/09 06:29:14;;;;;;;1.10;1.00;;;18.00;39.20;;;;;;5039821;28;20426;-60
2022/04/09 06:31:40;;;;;;;1.30;1.20;;;18.00;39.30;;;;;;5041722;28;20235;-60
2022/04/09 06:34:05;;;;;;;1.93;1.20;;;18.00;39.30;;;;;;5042963;28;20710;-59
2022/04/09 06:36:31;;;;;;;3.10;1.00;;;18.00;39.30;;;;;;5041042;28;20226;-59
2022/04/09 06:38:57;;;;;;;1.43;1.20;;;18.00;39.20;;;;;;5040443;28;20701;-59
2022/04/09 06:41:22;;;;;;;1.23;0.97;;;18.00;39.30;;;;;;5039304;28;20237;-60
2022/04/09 06:43:48;;;;;;;1.20;1.10;;;18.00;39.30;;;;;;5039744;28;20226;-61
2022/04/09 06:46:15;;;;;;;1.03;0.93;;;18.00;39.30;;;;;;5038219;28;20680;-59
2022/04/09 06:48:41;;;;;;;1.90;1.00;;;18.00;39.30;;;;;;5039294;28;20455;-59
2022/04/09 06:51:07;;;;;;;1.10;1.00;;;17.90;39.20;;;;;;5037403;28;20439;-58
2022/04/09 06:53:32;;;;;;;1.30;1.00;;;18.00;39.20;;;;;;5036425;28;20223;-60
2022/04/09 06:55:58;;;;;;;2.30;1.40;;;18.00;39.20;;;;;;5041670;28;20589;-61
2022/04/09 06:58:24;;;;;;;1.67;1.20;;;18.00;39.20;;;;;;5035469;28;20229;-61
2022/04/09 07:00:49;;;;;;;1.13;1.00;;;18.00;39.20;;;;;;5044383;28;20257;-62
2022/04/09 07:03:15;;;;;;;0.80;0.80;;;18.00;39.30;;;;;;5046022;28;20230;-61
2022/04/09 07:05:41;;;;;;;1.53;1.43;;;18.00;39.20;;;;;;5042356;28;20305;-60
2022/04/09 07:08:08;;;;;;;1.40;1.00;;;18.00;39.20;;;;;;5048387;28;20230;-60
2022/04/09 07:10:34;;;;;;;1.67;1.30;;;18.00;39.20;;;;;;5043953;28;20541;-61
2022/04/09 07:13:00;;;;;;;1.70;1.27;;;18.00;40.00;;;;;;5043418;28;20445;-58
2022/04/09 07:15:26;;;;;;;1.20;1.10;;;18.00;39.20;;;;;;5043431;28;20426;-59
2022/04/09 07:17:51;;;;;;;1.37;1.10;;;18.00;39.20;;;;;;5043005;28;20684;-58
2022/04/09 07:20:17;;;;;;;1.20;1.10;;;18.00;39.20;;;;;;5046529;28;20229;-58
2022/04/09 07:22:43;;;;;;;1.20;1.10;;;18.00;39.10;;;;;;5042240;28;20246;-59
2022/04/09 07:25:09;;;;;;;1.13;1.03;;;18.00;39.20;;;;;;5042967;28;20672;-58
2022/04/09 07:27:40;;;;;;;1.83;1.00;;;18.00;39.20;;;;;;5041339;28;20427;-58
2022/04/09 07:30:07;;;;;;;1.23;0.90;;;18.00;39.20;;;;;;5040249;28;20451;-59
2022/04/09 07:32:33;;;;;;;1.13;0.90;;;18.00;39.20;;;;;;5046855;28;20976;-61
2022/04/09 07:34:59;;;;;;;1.30;1.03;;;18.00;39.20;;;;;;5044493;28;20445;-62
2022/04/09 07:37:24;;;;;;;2.30;1.27;;;18.00;39.20;;;;;;5043105;28;20671;-60
2022/04/09 07:39:50;;;;;;;2.03;1.10;;;18.00;39.20;;;;;;5041991;28;20628;-62
2022/04/09 07:42:16;;;;;;;1.27;1.17;;;18.00;39.20;;;;;;5041816;28;20235;-60
2022/04/09 07:44:41;;;;;;;1.93;1.23;;;18.00;39.20;;;;;;5044320;28;20218;-59
2022/04/09 07:47:07;;;;;;;1.37;1.10;;;18.00;39.20;;;;;;5048567;28;20223;-59
2022/04/09 07:49:32;;;;;;;1.67;1.10;;;18.00;39.30;;;;;;5043000;28;20753;-59
2022/04/09 07:51:58;;;;;;;2.37;1.00;;;18.00;39.20;;;;;;5043165;28;20289;-59
2022/04/09 07:54:24;;;;;;;1.00;0.90;;;18.00;39.20;;;;;;5042396;28;20236;-59
2022/04/09 07:56:50;;;;;;;2.87;1.10;;;18.00;39.20;;;;;;5040792;28;20223;-59
2022/04/09 07:59:16;;;;;;;1.77;1.03;;;18.00;39.20;;;;;;5040776;28;20280;-58
2022/04/09 08:01:41;;;;;;;2.80;1.10;;;18.00;39.20;;;;;;5043873;28;20806;-59
2022/04/09 08:04:07;;;;;;;1.20;1.10;;;18.00;39.20;;;;;;5045138;28;20261;-59
2022/04/09 08:06:33;;;;;;;1.67;1.00;;;18.00;39.20;;;;;;5044744;28;20851;-59
2022/04/09 08:08:58;;;;;;;2.47;1.17;;;18.00;39.20;;;;;;5040054;28;20683;-58
2022/04/09 08:11:24;;;;;;;4.00;1.20;;;18.00;39.30;;;;;;5036556;28;20228;-60
2022/04/09 08:13:50;;;;;;;1.70;1.10;;;18.00;39.20;;;;;;5041683;28;20677;-64
2022/04/09 08:16:15;;;;;;;1.40;1.30;;;18.00;39.20;;;;;;5040935;28;20230;-59
2022/04/09 08:18:41;;;;;;;2.67;1.10;;;18.00;39.20;;;;;;5042165;28;20236;-59
2022/04/09 08:21:07;;;;;;;3.37;1.27;;;18.00;39.20;;;;;;5040674;28;20231;-59
2022/04/09 08:23:32;;;;;;;4.30;1.30;;;18.00;39.10;;;;;;5043790;28;20226;-57
2022/04/09 08:25:58;;;;;;;7.13;2.07;;;18.00;39.10;;;;;;5040839;28;20521;-57
2022/04/09 08:28:26;;;;;;;8.67;2.00;;;18.10;39.20;;;;;;5043093;28;20683;-58
2022/04/09 08:30:52;;;;;;;5.83;1.40;;;18.10;39.20;;;;;;5025542;28;20231;-60
2022/04/09 08:33:19;;;;;;;3.90;2.07;;;18.10;39.20;;;;;;5040946;28;20460;-60
2022/04/09 08:35:44;;;;;;;6.63;1.57;;;18.10;39.20;;;;;;5037578;28;20310;-61
2022/04/09 08:38:10;;;;;;;7.50;1.80;;;18.10;39.20;;;;;;5038149;28;20427;-59
2022/04/09 08:40:38;;;;;;;15.77;2.70;;;18.20;39.40;;;;;;5036838;28;20223;-57
2022/04/09 08:43:05;;;;;;;6.47;2.07;;;18.20;39.50;;;;;;5038074;28;20273;-58
2022/04/09 08:45:36;;;;;;;8.10;2.43;;;18.20;39.50;;;;;;5042378;28;20433;-57
2022/04/09 08:48:06;;;;;;;11.43;2.23;;;18.20;39.50;;;;;;5037511;28;20776;-57
2022/04/09 08:50:32;;;;;;;10.93;2.83;;;18.20;39.50;;;;;;5039730;28;20775;-58
2022/04/09 08:53:05;;;;;;;6.30;1.93;;;18.20;39.60;;;;;;5039468;28;20459;-57
2022/04/09 08:55:31;;;;;;;12.57;1.60;;;18.20;39.70;;;;;;5038317;28;20234;-59
2022/04/09 08:57:56;;;;;;;7.43;2.10;;;18.20;39.70;;;;;;5039185;28;20488;-58
2022/04/09 09:00:22;;;;;;;7.53;1.93;;;18.20;39.80;;;;;;5044915;28;20735;-57
2022/04/09 09:02:53;;;;;;;4.33;1.70;;;18.20;40.00;;;;;;5041637;28;20296;-58
2022/04/09 09:05:30;;;;;;;5.33;1.80;;;18.20;40.60;;;;;;5038428;28;20249;-59
2022/04/09 09:07:55;;;;;;;124.00;18.87;;;18.30;39.90;;;;;;5040763;28;20487;-58
2022/04/09 09:10:21;;;;;;;234.87;39.03;;;18.20;39.80;;;;;;5039764;28;20444;-58
2022/04/09 09:13:05;;;;;;;180.77;30.40;;;18.30;40.00;;;;;;5036580;28;20214;-58
2022/04/09 09:15:55;;;;;;;183.53;27.43;;;18.30;39.90;;;;;;5042491;28;21233;-57
2022/04/09 09:18:26;;;;;;;99.73;18.90;;;18.30;39.90;;;;;;5035475;28;20950;-59
2022/04/09 09:20:57;;;;;;;85.07;15.33;;;18.40;40.00;;;;;;5039167;28;20452;-59
2022/04/09 09:23:24;;;;;;;68.13;15.07;;;18.40;39.90;;;;;;5040540;28;20434;-57
2022/04/09 09:25:53;;;;;;;58.07;13.60;;;18.40;39.90;;;;;;5038922;28;20423;-58
2022/04/09 09:28:26;;;;;;;78.33;19.50;;;18.40;39.90;;;;;;5034616;28;20514;-58
2022/04/09 09:30:52;;;;;;;77.90;18.53;;;18.40;39.90;;;;;;5019056;28;20443;-59
2022/04/09 09:33:18;;;;;;;56.10;16.30;;;18.40;39.90;;;;;;5018909;28;20531;-59
2022/04/09 09:35:51;;;;;;;44.80;11.30;;;18.40;40.00;;;;;;5022042;28;21028;-58
2022/04/09 09:38:23;;;;;;;54.43;12.83;;;18.40;40.00;;;;;;5022541;28;20254;-58
2022/04/09 09:40:50;;;;;;;51.83;11.70;;;18.40;40.10;;;;;;5015931;28;20432;-60
2022/04/09 09:43:17;;;;;;;91.23;14.97;;;18.40;40.10;;;;;;5021298;28;20939;-58
2022/04/09 09:45:44;;;;;;;66.27;12.93;;;18.40;40.10;;;;;;5023823;28;20431;-58
2022/04/09 09:48:29;;;;;;;44.83;10.70;;;18.40;40.10;;;;;;5018603;28;20491;-58
2022/04/09 09:50:57;;;;;;;26.83;7.40;;;18.40;40.10;;;;;;5020304;28;20979;-59
2022/04/09 09:53:26;;;;;;;28.07;7.53;;;18.40;40.10;;;;;;5020571;28;20939;-59
2022/04/09 09:55:52;;;;;;;28.33;7.30;;;18.40;40.10;;;;;;5015423;28;20903;-59
2022/04/09 09:58:20;;;;;;;24.07;6.43;;;18.50;40.10;;;;;;5020850;28;20435;-59
2022/04/09 10:00:47;;;;;;;20.10;5.80;;;18.50;40.10;;;;;;5005051;28;20590;-58
2022/04/09 10:03:14;;;;;;;12.87;5.10;;;18.50;40.10;;;;;;5020962;28;20432;-60
2022/04/09 10:05:40;;;;;;;17.27;5.33;;;18.50;40.10;;;;;;5036876;28;20422;-58
2022/04/09 10:08:07;;;;;;;7.00;4.10;;;18.60;40.20;;;;;;5045200;28;20480;-58
2022/04/09 10:10:37;;;;;;;10.90;3.90;;;18.60;40.10;;;;;;5042005;28;20454;-58
2022/04/09 10:13:07;;;;;;;7.67;3.30;;;18.60;40.10;;;;;;5023422;28;20518;-59
2022/04/09 10:15:33;;;;;;;7.40;3.50;;;18.60;40.10;;;;;;5022572;28;20430;-59
2022/04/09 10:18:00;;;;;;;5.27;3.60;;;18.70;40.20;;;;;;5039110;28;20459;-57
2022/04/09 10:20:28;;;;;;;9.67;3.10;;;18.70;40.20;;;;;;5040770;28;20218;-57
2022/04/09 10:22:58;;;;;;;11.30;3.50;;;18.70;40.30;;;;;;5042449;28;20429;-58
2022/04/09 10:25:29;;;;;;;3.30;2.60;;;18.70;40.30;;;;;;5041301;28;20487;-57
2022/04/09 10:28:03;;;;;;;3.27;2.23;;;18.70;40.40;;;;;;5037782;28;20504;-58
2022/04/09 10:30:37;;;;;;;3.37;2.80;;;18.70;40.40;;;;;;5042461;28;20456;-59
2022/04/09 10:33:03;;;;;;;5.47;2.23;;;18.70;41.20;;;;;;5037405;28;20495;-58
2022/04/09 10:35:39;;;;;;;3.73;2.80;;;18.70;40.50;;;;;;5044949;28;20851;-58
2022/04/09 10:38:10;;;;;;;6.60;3.20;;;18.70;40.50;;;;;;5045328;28;20214;-57
2022/04/09 10:40:36;;;;;;;2.93;2.60;;;18.70;40.60;;;;;;5039624;28;20485;-59
2022/04/09 10:43:03;;;;;;;4.50;1.93;;;18.70;40.70;;;;;;5044301;28;20438;-58
2022/04/09 10:45:29;;;;;;;4.83;2.43;;;18.70;40.70;;;;;;5045664;28;20460;-58
2022/04/09 10:48:05;;;;;;;2.10;1.90;;;18.70;40.70;;;;;;5042816;28;20426;-58
2022/04/09 10:50:56;;;;;;;2.67;1.90;;;18.60;40.80;;;;;;5042298;28;20256;-58
2022/04/09 10:53:24;;;;;;;2.83;1.97;;;18.60;40.80;;;;;;5042410;28;20479;-58
2022/04/09 10:56:10;;;;;;;2.20;2.00;;;18.60;40.80;;;;;;5043168;28;20862;-58
2022/04/09 10:59:13;;;;;;;4.47;2.23;;;18.60;40.80;;;;;;5042103;28;20439;-58
2022/04/09 11:01:50;;;;;;;2.80;1.93;;;18.60;40.80;;;;;;5041155;28;20447;-57
2022/04/09 11:04:41;;;;;;;2.50;2.03;;;18.60;40.80;;;;;;5045397;28;20473;-57
2022/04/09 11:07:16;;;;;;;1.90;1.60;;;18.60;40.90;;;;;;5048506;28;20797;-57
2022/04/09 11:09:56;;;;;;;2.50;1.70;;;18.50;40.80;;;;;;5052382;28;20421;-59
2022/04/09 11:12:24;;;;;;;3.80;1.73;;;18.50;40.80;;;;;;5063343;28;20469;-59
2022/04/09 11:14:57;;;;;;;2.07;1.50;;;18.50;41.60;;;;;;5064795;28;20854;-58
2022/04/09 11:17:31;;;;;;;4.00;2.20;;;18.50;40.80;;;;;;5059719;28;20454;-57
2022/04/09 11:20:10;;;;;;;2.47;2.27;;;18.50;40.80;;;;;;5064325;28;20824;-62
2022/04/09 11:22:43;;;;;;;4.20;2.20;;;18.50;40.80;;;;;;5066032;28;20448;-58
2022/04/09 11:25:20;;;;;;;1.80;1.63;;;18.50;40.80;;;;;;5060830;28;21249;-58
2022/04/09 11:27:46;;;;;;;1.70;1.60;;;18.50;40.80;;;;;;5060373;28;20462;-58
2022/04/09 11:30:12;;;;;;;1.73;1.47;;;18.50;41.60;;;;;;5062680;28;20508;-58
2022/04/09 11:32:38;;;;;;;2.13;1.83;;;18.50;40.80;;;;;;5063601;28;20237;-58
2022/04/09 11:35:10;;;;;;;2.23;1.53;;;18.50;40.80;;;;;;5061462;28;20431;-58
2022/04/09 11:37:41;;;;;;;2.57;1.50;;;18.50;40.80;;;;;;5068037;28;20225;-57
2022/04/09 11:40:09;;;;;;;2.37;1.67;;;18.50;40.80;;;;;;5061993;28;20426;-58
2022/04/09 11:42:44;;;;;;;1.90;1.33;;;18.50;40.80;;;;;;5064521;28;20474;-57
2022/04/09 11:45:31;;;;;;;1.70;1.40;;;18.50;40.80;;;;;;5066902;28;20421;-57
2022/04/09 11:48:02;;;;;;;1.70;1.43;;;18.50;40.80;;;;;;5060971;28;20440;-57
2022/04/09 11:50:37;;;;;;;3.83;1.30;;;18.50;40.80;;;;;;5065314;28;20458;-57
2022/04/09 11:53:13;;;;;;;3.30;1.43;;;18.50;40.80;;;;;;5063230;28;20429;-60
2022/04/09 11:55:39;;;;;;;2.47;1.40;;;18.40;40.80;;;;;;5058806;28;20425;-58
2022/04/09 11:58:06;;;;;;;2.50;1.50;;;18.40;40.90;;;;;;5065881;28;20483;-59
2022/04/09 12:00:36;;;;;;;3.17;1.30;;;18.40;40.80;;;;;;5063858;28;20439;-59
2022/04/09 12:03:06;;;;;;;1.40;1.10;;;18.40;40.90;;;;;;5059137;28;20508;-57
2022/04/09 12:05:48;;;;;;;2.83;1.77;;;18.40;40.80;;;;;;5061124;28;20410;-58
2022/04/09 12:08:19;;;;;;;1.53;1.37;;;18.40;40.80;;;;;;5043605;28;20456;-58
2022/04/09 12:11:00;;;;;;;3.37;1.20;;;18.40;40.90;;;;;;5037163;28;20838;-57
2022/04/09 12:13:30;;;;;;;1.80;1.50;;;18.40;40.90;;;;;;5040528;28;20463;-57
2022/04/09 12:16:01;;;;;;;1.63;1.53;;;18.40;40.90;;;;;;5042513;28;20435;-58
2022/04/09 12:18:32;;;;;;;1.33;1.23;;;18.40;40.90;;;;;;5037817;28;20536;-57
2022/04/09 12:21:15;;;;;;;1.30;1.17;;;18.40;40.90;;;;;;5042892;28;20906;-59
2022/04/09 12:23:41;;;;;;;1.53;1.40;;;18.40;40.90;;;;;;5042130;28;20445;-58
2022/04/09 12:26:24;;;;;;;1.60;1.50;;;18.40;40.90;;;;;;5041292;28;20818;-59
2022/04/09 12:29:11;;;;;;;1.33;1.23;;;18.40;40.90;;;;;;5039500;28;20215;-58
2022/04/09 12:31:36;;;;;;;2.03;1.30;;;18.40;40.90;;;;;;5029800;28;20434;-59
2022/04/09 12:34:03;;;;;;;2.67;1.37;;;18.40;40.90;;;;;;5034911;28;20748;-58
2022/04/09 12:36:29;;;;;;;2.00;1.37;;;18.40;40.90;;;;;;5042645;28;20253;-57
2022/04/09 12:38:55;;;;;;;1.97;1.20;;;18.40;40.90;;;;;;5039706;28;20448;-58
2022/04/09 12:41:21;;;;;;;1.20;1.10;;;18.40;40.90;;;;;;5044156;28;20294;-59
2022/04/09 12:43:46;;;;;;;1.30;1.20;;;18.40;40.90;;;;;;5042654;28;20497;-59
2022/04/09 12:46:16;;;;;;;1.10;1.00;;;18.40;40.90;;;;;;5044969;28;20258;-59
2022/04/09 12:48:50;;;;;;;2.33;0.90;;;18.40;40.90;;;;;;5035751;28;20223;-59